createdAt,value
2019-03-21T00:00:55.881Z,-0.90
2019-03-21T00:03:43.761Z,-1.00
2019-03-21T00:06:31.077Z,-1.10
2019-03-21T00:09:19.411Z,-1.10
2019-03-21T00:12:10.947Z,-1.00
2019-03-21T00:15:01.726Z,-1.00
2019-03-21T00:17:52.358Z,-1.00
2019-03-21T00:20:40.086Z,-1.10
2019-03-21T00:23:27.647Z,-1.10
2019-03-21T00:26:15.286Z,-1.20
2019-03-21T00:29:02.739Z,-1.20
2019-03-21T00:31:50.368Z,-1.20
2019-03-21T00:34:38.056Z,-1.30
2019-03-21T00:37:25.747Z,-1.30
2019-03-21T00:40:16.431Z,-1.30
2019-03-21T00:43:07.140Z,-1.30
2019-03-21T00:45:54.633Z,-1.30
2019-03-21T00:48:42.399Z,-1.30
2019-03-21T00:51:29.949Z,-1.40
2019-03-21T00:54:17.672Z,-1.40
2019-03-21T00:57:05.105Z,-1.40
2019-03-21T00:59:52.513Z,-1.40
2019-03-21T01:02:40.176Z,-1.50
2019-03-21T01:05:27.665Z,-1.50
2019-03-21T01:08:15.110Z,-1.50
2019-03-21T01:11:02.802Z,-1.50
2019-03-21T01:13:50.568Z,-1.50
2019-03-21T01:16:38.285Z,-1.60
2019-03-21T01:19:25.837Z,-1.60
2019-03-21T01:22:13.541Z,-1.60
2019-03-21T01:25:01.107Z,-1.60
2019-03-21T01:27:48.618Z,-1.60
2019-03-21T01:30:36.262Z,-1.60
2019-03-21T01:33:23.722Z,-1.70
2019-03-21T01:36:11.644Z,-1.60
2019-03-21T01:38:59.228Z,-1.50
2019-03-21T01:41:46.929Z,-1.50
2019-03-21T01:44:40.993Z,-1.60
2019-03-21T01:47:24.595Z,-1.60
2019-03-21T01:50:15.176Z,-1.70
2019-03-21T01:53:02.760Z,-1.70
2019-03-21T01:55:50.267Z,-1.70
2019-03-21T01:58:37.718Z,-1.70
2019-03-21T02:01:25.497Z,-1.70
2019-03-21T02:04:13.158Z,-1.70
2019-03-21T02:07:00.776Z,-1.80
2019-03-21T02:09:48.484Z,-1.80
2019-03-21T02:12:35.849Z,-1.80
2019-03-21T02:15:25.007Z,-1.80
2019-03-21T02:18:12.870Z,-1.80
2019-03-21T02:21:00.576Z,-1.80
2019-03-21T02:23:47.997Z,-1.90
2019-03-21T02:26:35.640Z,-1.90
2019-03-21T02:29:23.317Z,-1.90
2019-03-21T02:32:10.948Z,-1.90
2019-03-21T02:34:58.499Z,-1.90
2019-03-21T02:37:45.901Z,-1.90
2019-03-21T02:40:33.353Z,-1.90
2019-03-21T02:43:20.833Z,-2.00
2019-03-21T02:46:08.323Z,-2.00
2019-03-21T02:48:55.834Z,-2.00
2019-03-21T02:51:43.692Z,-2.10
2019-03-21T02:54:31.368Z,-2.10
2019-03-21T02:57:19.010Z,-2.00
2019-03-21T03:00:10.015Z,-2.00
2019-03-21T03:02:58.882Z,-2.10
2019-03-21T03:05:46.553Z,-2.20
2019-03-21T03:08:34.158Z,-2.20
2019-03-21T03:11:23.695Z,-2.20
2019-03-21T03:14:11.304Z,-2.20
2019-03-21T03:16:59.071Z,-2.10
2019-03-21T03:19:46.697Z,-2.10
2019-03-21T03:22:34.366Z,-2.20
2019-03-21T03:25:21.865Z,-2.20
2019-03-21T03:28:12.076Z,-2.20
2019-03-21T03:30:59.552Z,-2.10
2019-03-21T03:33:46.928Z,-2.10
2019-03-21T03:36:34.683Z,-2.20
2019-03-21T03:39:22.199Z,-2.20
2019-03-21T03:42:09.641Z,-2.20
2019-03-21T03:44:57.224Z,-2.30
2019-03-21T03:47:44.701Z,-2.30
2019-03-21T03:50:32.422Z,-2.30
2019-03-21T03:53:20.122Z,-2.30
2019-03-21T03:56:07.461Z,-2.20
2019-03-21T03:58:58.237Z,-2.20
2019-03-21T04:01:46.085Z,-2.30
2019-03-21T04:04:33.683Z,-2.40
2019-03-21T04:07:21.336Z,-2.30
2019-03-21T04:10:23.524Z,-2.40
2019-03-21T04:13:10.889Z,-2.40
2019-03-21T04:15:58.558Z,-2.50
2019-03-21T04:18:45.936Z,-2.50
2019-03-21T04:21:33.778Z,-2.30
2019-03-21T04:24:21.466Z,-2.20
2019-03-21T04:27:09.019Z,-2.30
2019-03-21T04:29:56.710Z,-2.30
2019-03-21T04:32:44.491Z,-2.40
2019-03-21T04:35:32.224Z,-2.40
2019-03-21T04:38:19.761Z,-2.40
2019-03-21T04:41:07.425Z,-2.50
2019-03-21T04:43:55.227Z,-2.60
2019-03-21T04:46:42.843Z,-2.70
2019-03-21T04:49:30.503Z,-2.70
2019-03-21T04:52:17.941Z,-2.70
2019-03-21T04:55:08.693Z,-2.60
2019-03-21T04:57:56.107Z,-2.60
2019-03-21T05:00:52.243Z,-2.60
2019-03-21T05:03:39.665Z,-2.50
2019-03-21T05:06:27.057Z,-2.40
2019-03-21T05:09:16.277Z,-2.50
2019-03-21T05:12:04.017Z,-2.50
2019-03-21T05:14:51.526Z,-2.50
2019-03-21T05:17:38.950Z,-2.40
2019-03-21T05:20:28.760Z,-2.40
2019-03-21T05:23:16.578Z,-2.40
2019-03-21T05:26:04.249Z,-2.40
2019-03-21T05:28:52.003Z,-2.40
2019-03-21T05:31:39.669Z,-2.50
2019-03-21T05:34:27.505Z,-2.50
2019-03-21T05:37:15.240Z,-2.60
2019-03-21T05:40:03.902Z,-2.60
2019-03-21T05:43:06.453Z,-2.60
2019-03-21T05:45:54.174Z,-2.60
2019-03-21T05:48:41.880Z,-2.50
2019-03-21T05:51:29.512Z,-2.30
2019-03-21T05:54:17.084Z,-2.20
2019-03-21T05:57:04.822Z,-2.00
2019-03-21T05:59:52.201Z,-1.80
2019-03-21T06:02:39.653Z,-1.80
2019-03-21T06:05:28.397Z,-1.70
2019-03-21T06:08:22.395Z,-1.60
2019-03-21T06:11:10.580Z,-1.40
2019-03-21T06:13:57.977Z,-1.40
2019-03-21T06:16:45.576Z,-1.40
2019-03-21T06:19:39.184Z,-1.40
2019-03-21T06:22:50.696Z,-1.30
2019-03-21T06:25:59.620Z,0.10
2019-03-21T06:28:47.520Z,-1.20
2019-03-21T06:31:34.944Z,-1.00
2019-03-21T06:34:22.440Z,-0.90
2019-03-21T06:37:10.091Z,-0.80
2019-03-21T06:39:57.508Z,-0.70
2019-03-21T06:42:45.176Z,-0.60
2019-03-21T06:45:32.723Z,-0.50
2019-03-21T06:48:20.428Z,-0.30
2019-03-21T06:51:08.190Z,-0.20
2019-03-21T06:53:55.716Z,-0.10
2019-03-21T06:56:43.381Z,0.10
2019-03-21T06:59:30.917Z,0.10
2019-03-21T07:02:19.007Z,0.20
2019-03-21T07:05:07.224Z,0.40
2019-03-21T07:07:54.765Z,0.50
2019-03-21T07:10:42.221Z,0.50
2019-03-21T07:13:29.721Z,0.80
2019-03-21T07:16:17.476Z,0.90
2019-03-21T07:19:04.904Z,1.10
2019-03-21T07:21:52.225Z,1.20
2019-03-21T07:24:39.660Z,1.30
2019-03-21T07:27:27.512Z,1.60
2019-03-21T07:30:15.312Z,1.60
2019-03-21T07:33:02.944Z,1.80
2019-03-21T07:35:50.607Z,2.10
2019-03-21T07:38:38.002Z,2.20
2019-03-21T07:41:25.373Z,2.30
2019-03-21T07:44:14.494Z,2.60
2019-03-21T07:47:12.060Z,2.90
2019-03-21T07:49:51.604Z,2.90
2019-03-21T07:52:38.981Z,3.00
2019-03-21T07:55:26.588Z,3.20
2019-03-21T07:58:14.041Z,3.40
2019-03-21T08:01:01.508Z,3.50
2019-03-21T08:03:48.884Z,2.20
2019-03-21T08:06:36.541Z,3.80
2019-03-21T08:09:24.291Z,4.00
2019-03-21T08:12:11.797Z,4.20
2019-03-21T08:14:59.134Z,4.40
2019-03-21T08:17:46.685Z,4.60
2019-03-21T08:20:34.337Z,4.70
2019-03-21T08:23:21.979Z,4.90
2019-03-21T08:26:09.465Z,5.00
2019-03-21T08:28:56.986Z,5.30
2019-03-21T08:31:44.556Z,5.50
2019-03-21T08:34:31.917Z,5.60
2019-03-21T08:37:19.591Z,6.00
2019-03-21T08:40:08.007Z,6.00
2019-03-21T08:42:55.721Z,6.20
2019-03-21T08:45:43.236Z,6.40
2019-03-21T08:48:30.658Z,6.60
2019-03-21T08:51:18.359Z,6.70
2019-03-21T08:54:06.128Z,6.90
2019-03-21T08:56:53.713Z,7.20
2019-03-21T08:59:41.466Z,7.30
2019-03-21T09:02:28.874Z,7.50
2019-03-21T09:05:16.545Z,7.70
2019-03-21T09:08:04.416Z,7.90
2019-03-21T09:10:52.176Z,9.70
2019-03-21T09:13:39.561Z,8.00
2019-03-21T09:16:26.908Z,8.20
2019-03-21T09:19:14.591Z,8.30
2019-03-21T09:22:02.081Z,8.50
2019-03-21T09:24:49.434Z,8.60
2019-03-21T09:27:37.136Z,8.80
2019-03-21T09:30:24.860Z,8.80
2019-03-21T09:33:12.221Z,8.80
2019-03-21T09:35:59.824Z,8.90
2019-03-21T09:38:47.224Z,9.00
2019-03-21T09:41:35.107Z,9.10
2019-03-21T09:44:29.143Z,9.20
2019-03-21T09:47:16.516Z,9.40
2019-03-21T09:50:09.053Z,9.40
2019-03-21T09:52:56.568Z,9.50
2019-03-21T09:55:44.006Z,9.60
2019-03-21T09:58:31.790Z,9.70
2019-03-21T10:01:19.226Z,9.70
2019-03-21T10:04:06.600Z,9.80
2019-03-21T10:06:54.137Z,10.20
2019-03-21T10:09:42.029Z,10.20
2019-03-21T10:12:29.706Z,10.30
2019-03-21T10:15:17.300Z,10.40
2019-03-21T10:18:05.133Z,10.50
2019-03-21T10:20:52.604Z,10.60
2019-03-21T10:23:39.977Z,10.70
2019-03-21T10:26:27.676Z,10.80
2019-03-21T10:29:15.193Z,10.90
2019-03-21T10:32:13.647Z,11.00
2019-03-21T10:34:52.430Z,11.10
2019-03-21T10:37:40.011Z,11.30
2019-03-21T10:40:27.733Z,11.30
2019-03-21T10:43:15.388Z,11.40
2019-03-21T10:46:02.993Z,11.60
2019-03-21T10:48:50.400Z,11.70
2019-03-21T10:51:38.253Z,11.80
2019-03-21T10:54:26.041Z,12.00
2019-03-21T10:57:13.692Z,12.10
2019-03-21T11:00:02.006Z,12.10
2019-03-21T11:02:49.925Z,12.10
2019-03-21T11:05:37.409Z,12.00
2019-03-21T11:08:24.953Z,12.20
2019-03-21T11:11:13.197Z,12.30
2019-03-21T11:14:00.965Z,12.40
2019-03-21T11:16:48.637Z,12.50
2019-03-21T11:19:35.965Z,12.40
2019-03-21T11:22:23.420Z,12.60
2019-03-21T11:25:11.053Z,12.60
2019-03-21T11:27:58.741Z,12.60
2019-03-21T11:30:46.216Z,12.70
2019-03-21T11:33:33.761Z,12.80
2019-03-21T11:36:21.380Z,12.90
2019-03-21T11:39:08.937Z,13.00
2019-03-21T11:41:56.413Z,13.10
2019-03-21T11:44:44.259Z,13.20
2019-03-21T11:47:41.295Z,13.30
2019-03-21T11:50:21.166Z,13.30
2019-03-21T11:53:08.549Z,13.20
2019-03-21T11:55:56.301Z,13.30
2019-03-21T11:58:43.879Z,13.40
2019-03-21T12:01:31.276Z,13.50
2019-03-21T12:04:18.801Z,13.60
2019-03-21T12:07:06.137Z,13.60
2019-03-21T12:09:53.590Z,13.70
2019-03-21T12:12:41.217Z,13.60
2019-03-21T12:15:29.060Z,13.70
2019-03-21T12:18:16.708Z,13.80
2019-03-21T12:21:04.145Z,14.00
2019-03-21T12:23:51.581Z,14.10
2019-03-21T12:29:26.466Z,14.10
2019-03-21T12:32:13.887Z,14.20
2019-03-21T12:35:01.612Z,14.30
2019-03-21T12:37:49.189Z,14.50
2019-03-21T12:40:36.678Z,14.60
2019-03-21T12:43:23.993Z,14.70
2019-03-21T12:46:11.578Z,14.80
2019-03-21T12:48:59.336Z,14.90
2019-03-21T12:51:46.741Z,15.10
2019-03-21T12:54:34.541Z,15.10
2019-03-21T12:57:22.193Z,15.10
2019-03-21T13:00:14.312Z,15.10
2019-03-21T13:03:01.681Z,15.20
2019-03-21T13:05:49.163Z,15.30
2019-03-21T13:08:36.795Z,15.40
2019-03-21T13:11:24.517Z,15.40
2019-03-21T13:14:12.172Z,15.50
2019-03-21T13:16:59.800Z,15.40
2019-03-21T13:19:47.313Z,15.40
2019-03-21T13:22:34.908Z,15.50
2019-03-21T13:25:22.404Z,15.60
2019-03-21T13:28:09.833Z,15.70
2019-03-21T13:30:57.185Z,15.60
2019-03-21T13:33:44.569Z,15.50
2019-03-21T13:36:32.018Z,15.60
2019-03-21T13:39:19.929Z,15.60
2019-03-21T13:42:07.648Z,15.70
2019-03-21T13:44:55.236Z,15.60
2019-03-21T13:47:42.885Z,15.80
2019-03-21T13:50:30.633Z,15.80
2019-03-21T13:53:19.167Z,16.00
2019-03-21T13:56:07.009Z,16.10
2019-03-21T13:58:54.668Z,16.10
2019-03-21T14:01:42.401Z,16.10
2019-03-21T14:04:30.098Z,16.00
2019-03-21T14:07:17.561Z,16.10
2019-03-21T14:10:07.544Z,16.10
2019-03-21T14:12:54.957Z,16.10
2019-03-21T14:15:42.712Z,16.10
2019-03-21T14:18:30.133Z,16.10
2019-03-21T14:21:17.714Z,16.10
2019-03-21T14:24:05.386Z,16.20
2019-03-21T14:26:52.870Z,16.10
2019-03-21T14:29:40.197Z,16.10
2019-03-21T14:32:27.807Z,16.00
2019-03-21T14:35:15.319Z,16.00
2019-03-21T14:38:02.759Z,15.80
2019-03-21T14:40:50.516Z,15.80
2019-03-21T14:43:38.396Z,15.80
2019-03-21T14:46:26.069Z,15.80
2019-03-21T14:49:13.649Z,15.90
2019-03-21T14:52:01.290Z,15.90
2019-03-21T14:54:48.677Z,15.80
2019-03-21T14:57:36.393Z,16.00
2019-03-21T15:00:24.078Z,16.10
2019-03-21T15:03:11.553Z,16.10
2019-03-21T15:05:59.233Z,16.10
2019-03-21T15:08:46.885Z,16.00
2019-03-21T15:11:34.317Z,16.00
2019-03-21T15:14:22.377Z,15.90
2019-03-21T15:17:09.838Z,15.70
2019-03-21T15:19:57.469Z,15.70
2019-03-21T15:22:45.258Z,15.70
2019-03-21T15:25:32.964Z,15.80
2019-03-21T15:28:20.348Z,15.80
2019-03-21T15:31:08.057Z,15.80
2019-03-21T15:33:55.504Z,15.70
2019-03-21T15:36:43.247Z,15.70
2019-03-21T15:39:30.617Z,15.70
2019-03-21T15:42:18.020Z,15.70
2019-03-21T15:45:22.305Z,15.70
2019-03-21T15:48:03.576Z,15.70
2019-03-21T15:50:51.045Z,15.70
2019-03-21T15:53:38.621Z,15.60
2019-03-21T15:56:26.287Z,15.60
2019-03-21T15:59:14.037Z,15.60
2019-03-21T16:02:01.712Z,15.60
2019-03-21T16:04:49.340Z,15.50
2019-03-21T16:07:36.722Z,15.40
2019-03-21T16:10:24.372Z,15.40
2019-03-21T16:13:11.804Z,15.40
2019-03-21T16:15:59.255Z,15.40
2019-03-21T16:18:46.753Z,15.30
2019-03-21T16:21:34.580Z,15.30
2019-03-21T16:24:22.291Z,15.30
2019-03-21T16:27:09.661Z,15.20
2019-03-21T16:29:57.293Z,15.20
2019-03-21T16:32:45.133Z,15.10
2019-03-21T16:35:32.605Z,15.10
2019-03-21T16:38:20.269Z,15.00
2019-03-21T16:41:07.944Z,15.00
2019-03-21T16:43:55.630Z,15.00
2019-03-21T16:46:43.300Z,14.80
2019-03-21T16:49:30.923Z,14.80
2019-03-21T16:52:18.717Z,14.60
2019-03-21T16:55:07.892Z,14.60
2019-03-21T16:57:55.525Z,14.50
2019-03-21T17:00:43.048Z,14.50
2019-03-21T17:03:30.809Z,14.50
2019-03-21T17:06:18.227Z,14.40
2019-03-21T17:09:07.628Z,14.30
2019-03-21T17:11:54.960Z,14.20
2019-03-21T17:14:42.653Z,14.00
2019-03-21T17:17:30.290Z,13.80
2019-03-21T17:20:17.943Z,13.70
2019-03-21T17:23:06.109Z,13.60
2019-03-21T17:25:53.766Z,13.40
2019-03-21T17:28:41.348Z,13.20
2019-03-21T17:31:29.009Z,13.20
2019-03-21T17:34:16.699Z,13.10
2019-03-21T17:37:04.694Z,12.80
2019-03-21T17:39:52.175Z,12.80
2019-03-21T17:42:39.886Z,12.70
2019-03-21T17:45:27.273Z,12.50
2019-03-21T17:48:14.721Z,12.50
2019-03-21T17:51:02.166Z,12.40
2019-03-21T17:53:49.620Z,12.20
2019-03-21T17:56:37.225Z,12.00
2019-03-21T17:59:24.889Z,11.80
2019-03-21T18:02:12.469Z,11.60
2019-03-21T18:05:00.432Z,11.60
2019-03-21T18:07:47.852Z,11.40
2019-03-21T18:10:35.580Z,11.30
2019-03-21T18:13:23.232Z,11.10
2019-03-21T18:16:10.990Z,10.80
2019-03-21T18:18:58.694Z,10.50
2019-03-21T18:25:33.747Z,9.90
2019-03-21T18:28:21.395Z,9.50
2019-03-21T18:31:08.876Z,9.40
2019-03-21T18:33:56.527Z,9.20
2019-03-21T18:36:44.221Z,8.80
2019-03-21T18:39:31.845Z,8.80
2019-03-21T18:42:19.507Z,8.70
2019-03-21T18:45:09.100Z,8.60
2019-03-21T18:47:56.780Z,8.40
2019-03-21T18:50:44.360Z,8.30
2019-03-21T18:53:32.009Z,8.20
2019-03-21T18:56:19.473Z,8.10
2019-03-21T18:59:07.197Z,8.10
2019-03-21T19:01:58.650Z,7.90
2019-03-21T19:04:44.362Z,7.80
2019-03-21T19:07:31.961Z,7.60
2019-03-21T19:10:19.631Z,7.60
2019-03-21T19:13:07.233Z,7.50
2019-03-21T19:15:54.910Z,7.40
2019-03-21T19:18:42.334Z,7.20
2019-03-21T19:21:30.109Z,7.20
2019-03-21T19:24:17.594Z,7.10
2019-03-21T19:27:05.301Z,6.90
2019-03-21T19:29:52.734Z,6.90
2019-03-21T19:32:40.504Z,6.90
2019-03-21T19:35:27.918Z,6.80
2019-03-21T19:38:15.686Z,6.60
2019-03-21T19:41:03.254Z,6.50
2019-03-21T19:43:50.901Z,7.40
2019-03-21T19:46:38.577Z,6.20
2019-03-21T19:49:25.995Z,6.00
2019-03-21T19:52:13.572Z,5.90
2019-03-21T19:55:01.233Z,5.80
2019-03-21T19:57:48.657Z,5.70
2019-03-21T20:00:36.138Z,5.50
2019-03-21T20:03:23.984Z,6.50
2019-03-21T20:06:11.706Z,5.40
2019-03-21T20:08:59.261Z,5.30
2019-03-21T20:11:46.795Z,5.20
2019-03-21T20:14:34.408Z,5.20
2019-03-21T20:17:21.756Z,5.00
2019-03-21T20:20:11.852Z,5.00
2019-03-21T20:22:59.573Z,5.00
2019-03-21T20:25:47.161Z,4.90
2019-03-21T20:28:34.845Z,4.80
2019-03-21T20:31:22.270Z,4.70
2019-03-21T20:34:12.695Z,4.70
2019-03-21T20:36:59.604Z,4.60
2019-03-21T20:39:47.181Z,4.50
2019-03-21T20:42:34.829Z,4.40
2019-03-21T20:45:22.624Z,4.20
2019-03-21T20:48:10.108Z,4.20
2019-03-21T20:50:57.960Z,4.20
2019-03-21T20:53:45.433Z,4.10
2019-03-21T20:56:33.223Z,4.10
2019-03-21T20:59:20.504Z,4.00
2019-03-21T21:02:07.908Z,3.90
2019-03-21T21:04:55.607Z,3.80
2019-03-21T21:07:43.339Z,3.70
2019-03-21T21:10:30.712Z,3.70
2019-03-21T21:13:18.131Z,3.60
2019-03-21T21:16:06.056Z,3.50
2019-03-21T21:18:53.710Z,3.40
2019-03-21T21:21:41.139Z,3.40
2019-03-21T21:24:28.824Z,3.40
2019-03-21T21:27:16.592Z,3.30
2019-03-21T21:30:06.889Z,3.20
2019-03-21T21:32:54.344Z,3.20
2019-03-21T21:35:42.112Z,3.10
2019-03-21T21:38:29.875Z,3.00
2019-03-21T21:41:17.296Z,3.00
2019-03-21T21:44:04.877Z,2.90
2019-03-21T21:46:52.552Z,2.90
2019-03-21T21:49:40.185Z,2.80
2019-03-21T21:52:27.888Z,2.80
2019-03-21T21:55:15.489Z,2.70
2019-03-21T21:58:02.835Z,2.60
2019-03-21T22:00:50.514Z,2.60
2019-03-21T22:03:38.152Z,2.50
2019-03-21T22:06:25.561Z,2.50
2019-03-21T22:09:13.059Z,2.40
2019-03-21T22:12:00.454Z,2.40
2019-03-21T22:14:48.110Z,2.30
2019-03-21T22:17:35.580Z,2.30
2019-03-21T22:20:23.336Z,2.20
2019-03-21T22:23:10.991Z,2.20
2019-03-21T22:25:58.375Z,2.10
2019-03-21T22:28:46.145Z,2.10
2019-03-21T22:31:33.704Z,2.00
2019-03-21T22:34:21.308Z,2.00
2019-03-21T22:37:08.987Z,1.90
2019-03-21T22:39:56.629Z,1.80
2019-03-21T22:42:44.333Z,1.80
2019-03-21T22:45:31.928Z,1.70
2019-03-21T22:48:19.391Z,1.70
2019-03-21T22:51:07.116Z,1.70
2019-03-21T22:53:54.748Z,1.60
2019-03-21T22:56:42.450Z,1.60
2019-03-21T22:59:30.120Z,1.50
2019-03-21T23:02:17.810Z,1.50
2019-03-21T23:05:06.669Z,1.50
2019-03-21T23:07:54.337Z,1.40
2019-03-21T23:10:41.954Z,1.40
2019-03-21T23:13:29.723Z,1.40
2019-03-21T23:16:17.440Z,1.30
2019-03-21T23:19:04.939Z,1.30
2019-03-21T23:21:52.669Z,1.20
2019-03-21T23:24:39.944Z,1.10
2019-03-21T23:27:27.633Z,1.10
2019-03-21T23:30:16.781Z,1.00
2019-03-21T23:33:04.517Z,1.00
2019-03-21T23:35:51.844Z,1.00
2019-03-21T23:38:39.200Z,1.00
2019-03-21T23:41:26.957Z,1.00
2019-03-21T23:44:14.689Z,0.90
2019-03-21T23:47:02.436Z,0.90
2019-03-21T23:49:49.795Z,0.90
2019-03-21T23:52:37.304Z,0.80
2019-03-21T23:55:24.926Z,0.70
2019-03-21T23:58:12.491Z,0.70
